sensor_id;sensor_type;location;lat;lon;timestamp;P1;durP1;ratioP1;P2;durP2;ratioP2
8213;SDS011;4148;47.974;7.824;2023-08-30T00:02:04;6.70;;;4.07;;
8213;SDS011;4148;47.974;7.824;2023-08-30T00:04:32;5.40;;;3.83;;
8213;SDS011;4148;47.974;7.824;2023-08-30T00:07:00;5.70;;;4.00;;
8213;SDS011;4148;47.974;7.824;2023-08-30T00:09:29;6.13;;;4.07;;
8213;SDS011;4148;47.974;7.824;2023-08-30T00:11:57;4.03;;;3.60;;
8213;SDS011;4148;47.974;7.824;2023-08-30T00:14:25;3.50;;;3.20;;
8213;SDS011;4148;47.974;7.824;2023-08-30T00:16:52;3.47;;;3.17;;
8213;SDS011;4148;47.974;7.824;2023-08-30T00:19:20;4.13;;;3.73;;
8213;SDS011;4148;47.974;7.824;2023-08-30T00:21:49;3.40;;;3.03;;
8213;SDS011;4148;47.974;7.824;2023-08-30T00:24:17;3.83;;;3.53;;
8213;SDS011;4148;47.974;7.824;2023-08-30T00:26:46;3.40;;;3.10;;
8213;SDS011;4148;47.974;7.824;2023-08-30T00:29:14;5.00;;;3.50;;
8213;SDS011;4148;47.974;7.824;2023-08-30T00:31:42;3.50;;;3.13;;
8213;SDS011;4148;47.974;7.824;2023-08-30T00:34:10;3.90;;;3.43;;
8213;SDS011;4148;47.974;7.824;2023-08-30T00:36:39;4.20;;;3.80;;
8213;SDS011;4148;47.974;7.824;2023-08-30T00:39:07;5.17;;;3.40;;
8213;SDS011;4148;47.974;7.824;2023-08-30T00:41:35;4.00;;;3.60;;
8213;SDS011;4148;47.974;7.824;2023-08-30T00:44:05;4.77;;;3.90;;
8213;SDS011;4148;47.974;7.824;2023-08-30T00:46:33;4.10;;;3.80;;
8213;SDS011;4148;47.974;7.824;2023-08-30T00:49:01;4.27;;;3.87;;
8213;SDS011;4148;47.974;7.824;2023-08-30T00:51:29;5.20;;;4.27;;
8213;SDS011;4148;47.974;7.824;2023-08-30T00:53:58;4.90;;;4.37;;
8213;SDS011;4148;47.974;7.824;2023-08-30T00:56:26;6.10;;;4.30;;
8213;SDS011;4148;47.974;7.824;2023-08-30T00:58:55;6.70;;;4.00;;
8213;SDS011;4148;47.974;7.824;2023-08-30T01:01:24;5.03;;;4.50;;
8213;SDS011;4148;47.974;7.824;2023-08-30T01:03:53;4.87;;;3.87;;
8213;SDS011;4148;47.974;7.824;2023-08-30T01:06:21;7.20;;;4.20;;
8213;SDS011;4148;47.974;7.824;2023-08-30T01:08:48;4.73;;;3.87;;
8213;SDS011;4148;47.974;7.824;2023-08-30T01:11:18;3.80;;;3.47;;
8213;SDS011;4148;47.974;7.824;2023-08-30T01:13:53;6.37;;;4.00;;
8213;SDS011;4148;47.974;7.824;2023-08-30T01:16:26;3.80;;;3.50;;
8213;SDS011;4148;47.974;7.824;2023-08-30T01:18:55;3.77;;;3.47;;
8213;SDS011;4148;47.974;7.824;2023-08-30T01:21:27;4.47;;;3.60;;
8213;SDS011;4148;47.974;7.824;2023-08-30T01:24:02;3.83;;;3.50;;
8213;SDS011;4148;47.974;7.824;2023-08-30T01:26:36;9.93;;;3.80;;
8213;SDS011;4148;47.974;7.824;2023-08-30T01:29:11;5.10;;;4.43;;
8213;SDS011;4148;47.974;7.824;2023-08-30T01:31:43;4.97;;;4.47;;
8213;SDS011;4148;47.974;7.824;2023-08-30T01:34:12;4.17;;;3.77;;
8213;SDS011;4148;47.974;7.824;2023-08-30T01:36:41;5.30;;;4.20;;
8213;SDS011;4148;47.974;7.824;2023-08-30T01:39:10;4.40;;;4.00;;
8213;SDS011;4148;47.974;7.824;2023-08-30T01:41:41;4.80;;;4.30;;
8213;SDS011;4148;47.974;7.824;2023-08-30T01:44:11;5.57;;;3.90;;
8213;SDS011;4148;47.974;7.824;2023-08-30T01:46:43;4.37;;;3.97;;
8213;SDS011;4148;47.974;7.824;2023-08-30T01:49:13;6.10;;;4.90;;
8213;SDS011;4148;47.974;7.824;2023-08-30T01:51:41;4.50;;;4.10;;
8213;SDS011;4148;47.974;7.824;2023-08-30T01:54:09;4.20;;;3.80;;
8213;SDS011;4148;47.974;7.824;2023-08-30T01:56:44;5.03;;;4.10;;
8213;SDS011;4148;47.974;7.824;2023-08-30T01:59:14;5.60;;;4.53;;
8213;SDS011;4148;47.974;7.824;2023-08-30T02:01:42;6.37;;;4.93;;
8213;SDS011;4148;47.974;7.824;2023-08-30T02:04:10;7.83;;;4.67;;
8213;SDS011;4148;47.974;7.824;2023-08-30T02:06:39;5.23;;;4.40;;
8213;SDS011;4148;47.974;7.824;2023-08-30T02:09:14;5.80;;;5.20;;
8213;SDS011;4148;47.974;7.824;2023-08-30T02:11:46;5.20;;;4.70;;
8213;SDS011;4148;47.974;7.824;2023-08-30T02:14:19;8.87;;;5.30;;
8213;SDS011;4148;47.974;7.824;2023-08-30T02:16:48;4.87;;;4.37;;
8213;SDS011;4148;47.974;7.824;2023-08-30T02:19:17;6.10;;;4.60;;
8213;SDS011;4148;47.974;7.824;2023-08-30T02:21:47;4.77;;;4.37;;
8213;SDS011;4148;47.974;7.824;2023-08-30T02:24:15;5.17;;;4.17;;
8213;SDS011;4148;47.974;7.824;2023-08-30T02:26:43;4.60;;;4.20;;
8213;SDS011;4148;47.974;7.824;2023-08-30T02:29:11;4.00;;;3.70;;
8213;SDS011;4148;47.974;7.824;2023-08-30T02:31:40;4.13;;;3.73;;
8213;SDS011;4148;47.974;7.824;2023-08-30T02:34:08;5.23;;;4.30;;
8213;SDS011;4148;47.974;7.824;2023-08-30T02:36:36;4.57;;;4.10;;
8213;SDS011;4148;47.974;7.824;2023-08-30T02:39:04;6.23;;;4.20;;
8213;SDS011;4148;47.974;7.824;2023-08-30T02:41:32;5.53;;;4.00;;
8213;SDS011;4148;47.974;7.824;2023-08-30T02:44:00;4.33;;;3.93;;
8213;SDS011;4148;47.974;7.824;2023-08-30T02:46:28;4.40;;;4.00;;
8213;SDS011;4148;47.974;7.824;2023-08-30T02:48:57;7.40;;;4.30;;
8213;SDS011;4148;47.974;7.824;2023-08-30T02:51:25;4.43;;;3.77;;
8213;SDS011;4148;47.974;7.824;2023-08-30T02:53:53;3.63;;;3.33;;
8213;SDS011;4148;47.974;7.824;2023-08-30T02:56:20;4.30;;;3.90;;
8213;SDS011;4148;47.974;7.824;2023-08-30T02:58:48;4.13;;;3.73;;
8213;SDS011;4148;47.974;7.824;2023-08-30T03:01:16;6.00;;;4.20;;
8213;SDS011;4148;47.974;7.824;2023-08-30T03:03:45;5.47;;;4.50;;
8213;SDS011;4148;47.974;7.824;2023-08-30T03:06:14;4.80;;;4.30;;
8213;SDS011;4148;47.974;7.824;2023-08-30T03:08:42;4.70;;;4.30;;
8213;SDS011;4148;47.974;7.824;2023-08-30T03:11:10;5.30;;;4.80;;
8213;SDS011;4148;47.974;7.824;2023-08-30T03:13:39;4.50;;;4.10;;
8213;SDS011;4148;47.974;7.824;2023-08-30T03:16:10;4.93;;;4.43;;
8213;SDS011;4148;47.974;7.824;2023-08-30T03:18:39;5.57;;;3.47;;
8213;SDS011;4148;47.974;7.824;2023-08-30T03:21:07;5.03;;;4.30;;
8213;SDS011;4148;47.974;7.824;2023-08-30T03:23:37;5.30;;;4.80;;
8213;SDS011;4148;47.974;7.824;2023-08-30T03:26:08;4.17;;;3.87;;
8213;SDS011;4148;47.974;7.824;2023-08-30T03:28:36;5.10;;;4.10;;
8213;SDS011;4148;47.974;7.824;2023-08-30T03:31:10;4.30;;;3.90;;
8213;SDS011;4148;47.974;7.824;2023-08-30T03:33:39;5.00;;;4.23;;
8213;SDS011;4148;47.974;7.824;2023-08-30T03:36:11;4.17;;;3.87;;
8213;SDS011;4148;47.974;7.824;2023-08-30T03:38:41;6.60;;;4.73;;
8213;SDS011;4148;47.974;7.824;2023-08-30T03:41:10;5.10;;;4.00;;
8213;SDS011;4148;47.974;7.824;2023-08-30T03:43:38;4.40;;;4.00;;
8213;SDS011;4148;47.974;7.824;2023-08-30T03:46:06;4.40;;;4.00;;
8213;SDS011;4148;47.974;7.824;2023-08-30T03:48:35;5.60;;;4.50;;
8213;SDS011;4148;47.974;7.824;2023-08-30T03:51:03;6.87;;;3.80;;
8213;SDS011;4148;47.974;7.824;2023-08-30T03:53:31;6.37;;;4.37;;
8213;SDS011;4148;47.974;7.824;2023-08-30T03:56:00;4.47;;;4.07;;
8213;SDS011;4148;47.974;7.824;2023-08-30T03:58:29;5.83;;;4.60;;
8213;SDS011;4148;47.974;7.824;2023-08-30T04:00:57;5.53;;;4.53;;
8213;SDS011;4148;47.974;7.824;2023-08-30T04:03:25;4.43;;;4.03;;
8213;SDS011;4148;47.974;7.824;2023-08-30T04:05:56;5.50;;;4.87;;
8213;SDS011;4148;47.974;7.824;2023-08-30T04:08:24;5.00;;;4.57;;
8213;SDS011;4148;47.974;7.824;2023-08-30T04:10:53;5.40;;;4.90;;
8213;SDS011;4148;47.974;7.824;2023-08-30T04:13:22;5.27;;;4.23;;
8213;SDS011;4148;47.974;7.824;2023-08-30T04:15:50;6.77;;;4.10;;
8213;SDS011;4148;47.974;7.824;2023-08-30T04:18:18;4.70;;;4.27;;
8213;SDS011;4148;47.974;7.824;2023-08-30T04:20:46;9.40;;;5.10;;
8213;SDS011;4148;47.974;7.824;2023-08-30T04:23:14;5.90;;;4.90;;
8213;SDS011;4148;47.974;7.824;2023-08-30T04:25:43;5.80;;;5.17;;
8213;SDS011;4148;47.974;7.824;2023-08-30T04:28:12;4.97;;;4.50;;
8213;SDS011;4148;47.974;7.824;2023-08-30T04:30:41;7.47;;;4.73;;
8213;SDS011;4148;47.974;7.824;2023-08-30T04:33:09;4.80;;;4.30;;
8213;SDS011;4148;47.974;7.824;2023-08-30T04:35:37;4.40;;;4.00;;
8213;SDS011;4148;47.974;7.824;2023-08-30T04:38:05;4.53;;;4.13;;
8213;SDS011;4148;47.974;7.824;2023-08-30T04:40:33;5.60;;;4.60;;
8213;SDS011;4148;47.974;7.824;2023-08-30T04:43:01;6.33;;;4.50;;
8213;SDS011;4148;47.974;7.824;2023-08-30T04:45:29;7.90;;;4.70;;
8213;SDS011;4148;47.974;7.824;2023-08-30T04:47:59;5.07;;;4.67;;
8213;SDS011;4148;47.974;7.824;2023-08-30T04:50:27;5.13;;;4.63;;
8213;SDS011;4148;47.974;7.824;2023-08-30T04:52:55;5.23;;;4.83;;
8213;SDS011;4148;47.974;7.824;2023-08-30T04:55:25;5.50;;;5.00;;
8213;SDS011;4148;47.974;7.824;2023-08-30T04:57:55;6.57;;;5.10;;
8213;SDS011;4148;47.974;7.824;2023-08-30T05:00:23;8.03;;;5.20;;
8213;SDS011;4148;47.974;7.824;2023-08-30T05:02:51;5.50;;;5.00;;
8213;SDS011;4148;47.974;7.824;2023-08-30T05:05:20;7.00;;;5.50;;
8213;SDS011;4148;47.974;7.824;2023-08-30T05:07:48;5.60;;;4.93;;
8213;SDS011;4148;47.974;7.824;2023-08-30T05:10:16;8.37;;;5.77;;
8213;SDS011;4148;47.974;7.824;2023-08-30T05:12:44;6.00;;;5.40;;
8213;SDS011;4148;47.974;7.824;2023-08-30T05:15:17;6.10;;;5.20;;
8213;SDS011;4148;47.974;7.824;2023-08-30T05:17:45;5.73;;;5.13;;
8213;SDS011;4148;47.974;7.824;2023-08-30T05:20:14;5.67;;;5.07;;
8213;SDS011;4148;47.974;7.824;2023-08-30T05:22:43;7.60;;;6.43;;
8213;SDS011;4148;47.974;7.824;2023-08-30T05:25:11;5.20;;;4.70;;
8213;SDS011;4148;47.974;7.824;2023-08-30T05:27:39;5.00;;;4.47;;
8213;SDS011;4148;47.974;7.824;2023-08-30T05:30:07;5.80;;;5.20;;
8213;SDS011;4148;47.974;7.824;2023-08-30T05:32:35;5.90;;;5.23;;
8213;SDS011;4148;47.974;7.824;2023-08-30T05:35:03;5.30;;;4.80;;
8213;SDS011;4148;47.974;7.824;2023-08-30T05:37:31;6.30;;;5.70;;
8213;SDS011;4148;47.974;7.824;2023-08-30T05:40:01;7.10;;;5.40;;
8213;SDS011;4148;47.974;7.824;2023-08-30T05:42:30;6.50;;;6.00;;
8213;SDS011;4148;47.974;7.824;2023-08-30T05:44:57;6.50;;;5.90;;
8213;SDS011;4148;47.974;7.824;2023-08-30T05:47:25;6.53;;;5.83;;
8213;SDS011;4148;47.974;7.824;2023-08-30T05:49:53;6.70;;;5.47;;
8213;SDS011;4148;47.974;7.824;2023-08-30T05:52:21;6.63;;;5.93;;
8213;SDS011;4148;47.974;7.824;2023-08-30T05:54:50;7.33;;;5.87;;
8213;SDS011;4148;47.974;7.824;2023-08-30T05:57:19;5.93;;;5.23;;
8213;SDS011;4148;47.974;7.824;2023-08-30T05:59:48;6.47;;;5.83;;
8213;SDS011;4148;47.974;7.824;2023-08-30T06:02:16;7.90;;;5.27;;
8213;SDS011;4148;47.974;7.824;2023-08-30T06:04:44;7.60;;;5.07;;
8213;SDS011;4148;47.974;7.824;2023-08-30T06:07:12;6.30;;;4.90;;
8213;SDS011;4148;47.974;7.824;2023-08-30T06:09:40;5.30;;;4.80;;
8213;SDS011;4148;47.974;7.824;2023-08-30T06:12:08;5.70;;;5.20;;
8213;SDS011;4148;47.974;7.824;2023-08-30T06:14:37;5.20;;;4.60;;
8213;SDS011;4148;47.974;7.824;2023-08-30T06:17:05;5.03;;;4.53;;
8213;SDS011;4148;47.974;7.824;2023-08-30T06:19:33;5.63;;;4.60;;
8213;SDS011;4148;47.974;7.824;2023-08-30T06:22:01;5.00;;;4.50;;
8213;SDS011;4148;47.974;7.824;2023-08-30T06:24:28;4.20;;;3.80;;
8213;SDS011;4148;47.974;7.824;2023-08-30T06:26:56;4.90;;;3.90;;
8213;SDS011;4148;47.974;7.824;2023-08-30T06:29:26;6.27;;;4.70;;
8213;SDS011;4148;47.974;7.824;2023-08-30T06:31:55;4.07;;;3.77;;
8213;SDS011;4148;47.974;7.824;2023-08-30T06:34:23;7.37;;;4.00;;
8213;SDS011;4148;47.974;7.824;2023-08-30T06:36:51;4.50;;;4.10;;
8213;SDS011;4148;47.974;7.824;2023-08-30T06:39:19;6.10;;;4.33;;
8213;SDS011;4148;47.974;7.824;2023-08-30T06:41:46;5.37;;;4.07;;
8213;SDS011;4148;47.974;7.824;2023-08-30T06:44:14;4.20;;;3.80;;
8213;SDS011;4148;47.974;7.824;2023-08-30T06:46:43;4.50;;;3.43;;
8213;SDS011;4148;47.974;7.824;2023-08-30T06:49:12;3.80;;;3.40;;
8213;SDS011;4148;47.974;7.824;2023-08-30T06:51:40;4.77;;;3.50;;
8213;SDS011;4148;47.974;7.824;2023-08-30T06:54:08;4.30;;;4.00;;
8213;SDS011;4148;47.974;7.824;2023-08-30T06:56:36;4.00;;;3.57;;
8213;SDS011;4148;47.974;7.824;2023-08-30T06:59:03;4.00;;;3.23;;
8213;SDS011;4148;47.974;7.824;2023-08-30T07:01:31;5.40;;;4.20;;
8213;SDS011;4148;47.974;7.824;2023-08-30T07:04:02;4.00;;;3.40;;
8213;SDS011;4148;47.974;7.824;2023-08-30T07:06:31;4.20;;;3.90;;
8213;SDS011;4148;47.974;7.824;2023-08-30T07:08:59;5.00;;;4.50;;
8213;SDS011;4148;47.974;7.824;2023-08-30T07:11:27;6.07;;;4.07;;
8213;SDS011;4148;47.974;7.824;2023-08-30T07:14:00;4.23;;;3.67;;
8213;SDS011;4148;47.974;7.824;2023-08-30T07:16:28;5.47;;;3.90;;
8213;SDS011;4148;47.974;7.824;2023-08-30T07:18:57;4.50;;;3.47;;
8213;SDS011;4148;47.974;7.824;2023-08-30T07:21:26;4.87;;;3.80;;
8213;SDS011;4148;47.974;7.824;2023-08-30T07:23:55;3.53;;;3.17;;
8213;SDS011;4148;47.974;7.824;2023-08-30T07:26:23;3.87;;;3.57;;
8213;SDS011;4148;47.974;7.824;2023-08-30T07:28:51;4.40;;;3.20;;
8213;SDS011;4148;47.974;7.824;2023-08-30T07:31:19;5.30;;;3.33;;
8213;SDS011;4148;47.974;7.824;2023-08-30T07:33:48;3.80;;;3.40;;
8213;SDS011;4148;47.974;7.824;2023-08-30T07:36:15;4.87;;;3.70;;
8213;SDS011;4148;47.974;7.824;2023-08-30T07:38:44;4.20;;;3.80;;
8213;SDS011;4148;47.974;7.824;2023-08-30T07:41:13;3.63;;;3.33;;
8213;SDS011;4148;47.974;7.824;2023-08-30T07:43:41;4.20;;;3.80;;
8213;SDS011;4148;47.974;7.824;2023-08-30T07:46:09;3.90;;;3.60;;
8213;SDS011;4148;47.974;7.824;2023-08-30T07:48:36;4.57;;;4.17;;
8213;SDS011;4148;47.974;7.824;2023-08-30T07:51:04;4.80;;;4.07;;
8213;SDS011;4148;47.974;7.824;2023-08-30T07:53:32;4.00;;;3.70;;
8213;SDS011;4148;47.974;7.824;2023-08-30T07:56:00;4.17;;;3.77;;
8213;SDS011;4148;47.974;7.824;2023-08-30T07:58:30;4.37;;;3.97;;
8213;SDS011;4148;47.974;7.824;2023-08-30T08:00:58;3.77;;;3.47;;
8213;SDS011;4148;47.974;7.824;2023-08-30T08:03:26;3.33;;;3.03;;
8213;SDS011;4148;47.974;7.824;2023-08-30T08:05:53;4.07;;;3.67;;
8213;SDS011;4148;47.974;7.824;2023-08-30T08:08:21;3.90;;;3.60;;
8213;SDS011;4148;47.974;7.824;2023-08-30T08:10:49;4.40;;;3.30;;
8213;SDS011;4148;47.974;7.824;2023-08-30T08:13:17;6.00;;;3.27;;
8213;SDS011;4148;47.974;7.824;2023-08-30T08:15:47;4.10;;;3.70;;
8213;SDS011;4148;47.974;7.824;2023-08-30T08:18:15;3.90;;;3.60;;
8213;SDS011;4148;47.974;7.824;2023-08-30T08:20:43;6.70;;;2.90;;
8213;SDS011;4148;47.974;7.824;2023-08-30T08:23:10;3.73;;;3.43;;
8213;SDS011;4148;47.974;7.824;2023-08-30T08:25:38;3.53;;;3.23;;
8213;SDS011;4148;47.974;7.824;2023-08-30T08:28:06;4.10;;;3.33;;
8213;SDS011;4148;47.974;7.824;2023-08-30T08:30:35;4.70;;;3.77;;
8213;SDS011;4148;47.974;7.824;2023-08-30T08:33:05;3.23;;;2.93;;
8213;SDS011;4148;47.974;7.824;2023-08-30T08:35:33;7.00;;;3.80;;
8213;SDS011;4148;47.974;7.824;2023-08-30T08:38:01;3.87;;;3.37;;
8213;SDS011;4148;47.974;7.824;2023-08-30T08:40:33;4.00;;;3.70;;
8213;SDS011;4148;47.974;7.824;2023-08-30T08:43:09;4.77;;;3.97;;
8213;SDS011;4148;47.974;7.824;2023-08-30T08:45:38;4.23;;;3.63;;
8213;SDS011;4148;47.974;7.824;2023-08-30T08:48:07;4.73;;;4.33;;
8213;SDS011;4148;47.974;7.824;2023-08-30T08:50:37;4.70;;;4.30;;
8213;SDS011;4148;47.974;7.824;2023-08-30T08:53:05;5.03;;;4.57;;
8213;SDS011;4148;47.974;7.824;2023-08-30T08:55:34;4.97;;;4.57;;
8213;SDS011;4148;47.974;7.824;2023-08-30T08:58:03;8.53;;;3.50;;
8213;SDS011;4148;47.974;7.824;2023-08-30T09:00:31;8.83;;;4.20;;
8213;SDS011;4148;47.974;7.824;2023-08-30T09:03:00;4.80;;;3.83;;
8213;SDS011;4148;47.974;7.824;2023-08-30T09:05:32;6.50;;;4.13;;
8213;SDS011;4148;47.974;7.824;2023-08-30T09:08:01;4.60;;;4.20;;
8213;SDS011;4148;47.974;7.824;2023-08-30T09:10:31;4.87;;;4.20;;
8213;SDS011;4148;47.974;7.824;2023-08-30T09:12:59;6.87;;;4.47;;
8213;SDS011;4148;47.974;7.824;2023-08-30T09:15:30;4.40;;;4.00;;
8213;SDS011;4148;47.974;7.824;2023-08-30T09:17:58;6.13;;;4.10;;
8213;SDS011;4148;47.974;7.824;2023-08-30T09:20:27;4.87;;;4.30;;
8213;SDS011;4148;47.974;7.824;2023-08-30T09:22:56;4.27;;;3.87;;
8213;SDS011;4148;47.974;7.824;2023-08-30T09:25:24;4.20;;;3.90;;
8213;SDS011;4148;47.974;7.824;2023-08-30T09:27:56;3.80;;;3.37;;
8213;SDS011;4148;47.974;7.824;2023-08-30T09:30:25;4.70;;;4.17;;
8213;SDS011;4148;47.974;7.824;2023-08-30T09:32:53;4.40;;;4.00;;
8213;SDS011;4148;47.974;7.824;2023-08-30T09:35:21;4.20;;;3.73;;
8213;SDS011;4148;47.974;7.824;2023-08-30T09:37:49;4.13;;;3.83;;
8213;SDS011;4148;47.974;7.824;2023-08-30T09:40:19;5.67;;;4.20;;
8213;SDS011;4148;47.974;7.824;2023-08-30T09:42:48;5.07;;;3.80;;
8213;SDS011;4148;47.974;7.824;2023-08-30T09:45:36;3.90;;;3.57;;
8213;SDS011;4148;47.974;7.824;2023-08-30T09:48:05;4.73;;;3.50;;
8213;SDS011;4148;47.974;7.824;2023-08-30T09:50:34;4.47;;;4.03;;
8213;SDS011;4148;47.974;7.824;2023-08-30T09:53:05;3.87;;;3.50;;
8213;SDS011;4148;47.974;7.824;2023-08-30T09:55:37;4.77;;;4.23;;
8213;SDS011;4148;47.974;7.824;2023-08-30T09:58:06;3.40;;;3.10;;
8213;SDS011;4148;47.974;7.824;2023-08-30T10:00:35;4.10;;;3.67;;
8213;SDS011;4148;47.974;7.824;2023-08-30T10:03:03;3.73;;;3.43;;
8213;SDS011;4148;47.974;7.824;2023-08-30T10:05:35;3.70;;;3.40;;
8213;SDS011;4148;47.974;7.824;2023-08-30T10:08:04;3.60;;;3.30;;
8213;SDS011;4148;47.974;7.824;2023-08-30T10:10:34;3.87;;;3.57;;
8213;SDS011;4148;47.974;7.824;2023-08-30T10:13:04;3.63;;;3.33;;
8213;SDS011;4148;47.974;7.824;2023-08-30T10:15:38;3.70;;;3.40;;
8213;SDS011;4148;47.974;7.824;2023-08-30T10:18:11;9.10;;;3.80;;
8213;SDS011;4148;47.974;7.824;2023-08-30T10:20:42;5.77;;;3.33;;
8213;SDS011;4148;47.974;7.824;2023-08-30T10:23:11;4.30;;;2.83;;
8213;SDS011;4148;47.974;7.824;2023-08-30T10:25:40;3.30;;;2.87;;
8213;SDS011;4148;47.974;7.824;2023-08-30T10:28:10;4.90;;;3.10;;
8213;SDS011;4148;47.974;7.824;2023-08-30T10:30:39;4.80;;;3.20;;
8213;SDS011;4148;47.974;7.824;2023-08-30T10:33:11;3.67;;;3.37;;
8213;SDS011;4148;47.974;7.824;2023-08-30T10:35:46;3.03;;;2.80;;
8213;SDS011;4148;47.974;7.824;2023-08-30T10:38:24;3.43;;;3.13;;
8213;SDS011;4148;47.974;7.824;2023-08-30T10:40:53;4.13;;;3.43;;
8213;SDS011;4148;47.974;7.824;2023-08-30T10:43:29;3.60;;;3.20;;
8213;SDS011;4148;47.974;7.824;2023-08-30T10:46:01;3.10;;;2.80;;
8213;SDS011;4148;47.974;7.824;2023-08-30T10:48:33;3.93;;;3.27;;
8213;SDS011;4148;47.974;7.824;2023-08-30T10:51:02;3.13;;;2.83;;
8213;SDS011;4148;47.974;7.824;2023-08-30T10:53:31;3.23;;;2.73;;
8213;SDS011;4148;47.974;7.824;2023-08-30T10:56:02;3.37;;;2.90;;
8213;SDS011;4148;47.974;7.824;2023-08-30T10:58:42;3.07;;;2.80;;
8213;SDS011;4148;47.974;7.824;2023-08-30T11:01:10;2.90;;;2.60;;
8213;SDS011;4148;47.974;7.824;2023-08-30T11:03:40;3.23;;;2.60;;
8213;SDS011;4148;47.974;7.824;2023-08-30T11:06:12;3.50;;;3.20;;
8213;SDS011;4148;47.974;7.824;2023-08-30T11:08:42;4.00;;;3.10;;
8213;SDS011;4148;47.974;7.824;2023-08-30T11:11:10;4.00;;;2.70;;
8213;SDS011;4148;47.974;7.824;2023-08-30T11:13:42;3.20;;;2.90;;
8213;SDS011;4148;47.974;7.824;2023-08-30T11:16:10;3.30;;;3.00;;
8213;SDS011;4148;47.974;7.824;2023-08-30T11:18:38;3.10;;;2.80;;
8213;SDS011;4148;47.974;7.824;2023-08-30T11:21:07;3.33;;;2.50;;
8213;SDS011;4148;47.974;7.824;2023-08-30T11:23:36;9.37;;;3.60;;
8213;SDS011;4148;47.974;7.824;2023-08-30T11:26:04;3.50;;;3.00;;
8213;SDS011;4148;47.974;7.824;2023-08-30T11:28:32;3.73;;;3.00;;
8213;SDS011;4148;47.974;7.824;2023-08-30T11:31:01;2.97;;;2.63;;
8213;SDS011;4148;47.974;7.824;2023-08-30T11:33:29;4.30;;;3.50;;
8213;SDS011;4148;47.974;7.824;2023-08-30T11:35:57;3.70;;;3.30;;
8213;SDS011;4148;47.974;7.824;2023-08-30T11:38:27;4.23;;;3.83;;
8213;SDS011;4148;47.974;7.824;2023-08-30T11:40:55;4.30;;;3.90;;
8213;SDS011;4148;47.974;7.824;2023-08-30T11:43:23;4.40;;;4.00;;
8213;SDS011;4148;47.974;7.824;2023-08-30T11:45:55;7.07;;;5.57;;
8213;SDS011;4148;47.974;7.824;2023-08-30T11:48:25;5.67;;;4.70;;
8213;SDS011;4148;47.974;7.824;2023-08-30T11:50:54;3.33;;;3.03;;
8213;SDS011;4148;47.974;7.824;2023-08-30T11:53:22;5.80;;;3.77;;
8213;SDS011;4148;47.974;7.824;2023-08-30T11:55:50;4.10;;;3.70;;
8213;SDS011;4148;47.974;7.824;2023-08-30T11:58:19;3.73;;;3.43;;
8213;SDS011;4148;47.974;7.824;2023-08-30T12:00:48;3.50;;;3.20;;
8213;SDS011;4148;47.974;7.824;2023-08-30T12:03:17;4.50;;;3.53;;
8213;SDS011;4148;47.974;7.824;2023-08-30T12:05:47;3.57;;;2.90;;
8213;SDS011;4148;47.974;7.824;2023-08-30T12:08:19;3.40;;;2.50;;
8213;SDS011;4148;47.974;7.824;2023-08-30T12:10:47;4.40;;;3.93;;
8213;SDS011;4148;47.974;7.824;2023-08-30T12:13:22;3.37;;;3.00;;
8213;SDS011;4148;47.974;7.824;2023-08-30T12:15:50;3.07;;;2.87;;
8213;SDS011;4148;47.974;7.824;2023-08-30T12:18:20;4.63;;;3.27;;
8213;SDS011;4148;47.974;7.824;2023-08-30T12:20:54;3.40;;;3.10;;
8213;SDS011;4148;47.974;7.824;2023-08-30T12:23:23;3.60;;;3.13;;
8213;SDS011;4148;47.974;7.824;2023-08-30T12:25:58;3.37;;;3.07;;
8213;SDS011;4148;47.974;7.824;2023-08-30T12:28:27;2.87;;;2.67;;
8213;SDS011;4148;47.974;7.824;2023-08-30T12:30:56;7.13;;;3.00;;
8213;SDS011;4148;47.974;7.824;2023-08-30T12:33:26;3.80;;;2.73;;
8213;SDS011;4148;47.974;7.824;2023-08-30T12:35:56;2.87;;;2.57;;
8213;SDS011;4148;47.974;7.824;2023-08-30T12:38:25;5.33;;;2.83;;
8213;SDS011;4148;47.974;7.824;2023-08-30T12:40:53;2.60;;;2.40;;
8213;SDS011;4148;47.974;7.824;2023-08-30T12:43:22;4.47;;;2.87;;
8213;SDS011;4148;47.974;7.824;2023-08-30T12:45:50;3.60;;;3.00;;
8213;SDS011;4148;47.974;7.824;2023-08-30T12:48:18;4.10;;;2.80;;
8213;SDS011;4148;47.974;7.824;2023-08-30T12:50:46;3.63;;;2.27;;
8213;SDS011;4148;47.974;7.824;2023-08-30T12:53:16;2.87;;;2.67;;
8213;SDS011;4148;47.974;7.824;2023-08-30T12:55:44;3.20;;;2.77;;
8213;SDS011;4148;47.974;7.824;2023-08-30T12:58:12;3.80;;;2.40;;
8213;SDS011;4148;47.974;7.824;2023-08-30T13:00:40;2.77;;;2.57;;
8213;SDS011;4148;47.974;7.824;2023-08-30T13:03:08;2.73;;;2.53;;
8213;SDS011;4148;47.974;7.824;2023-08-30T13:05:37;3.17;;;2.67;;
8213;SDS011;4148;47.974;7.824;2023-08-30T13:08:05;3.57;;;2.63;;
8213;SDS011;4148;47.974;7.824;2023-08-30T13:10:34;3.50;;;3.03;;
8213;SDS011;4148;47.974;7.824;2023-08-30T13:13:02;5.33;;;3.00;;
8213;SDS011;4148;47.974;7.824;2023-08-30T13:15:30;3.20;;;2.87;;
8213;SDS011;4148;47.974;7.824;2023-08-30T13:17:58;3.30;;;3.00;;
8213;SDS011;4148;47.974;7.824;2023-08-30T13:20:26;3.00;;;2.70;;
8213;SDS011;4148;47.974;7.824;2023-08-30T13:22:54;3.13;;;2.50;;
8213;SDS011;4148;47.974;7.824;2023-08-30T13:25:22;5.93;;;2.90;;
8213;SDS011;4148;47.974;7.824;2023-08-30T13:27:53;3.13;;;2.80;;
8213;SDS011;4148;47.974;7.824;2023-08-30T13:30:20;2.97;;;2.67;;
8213;SDS011;4148;47.974;7.824;2023-08-30T13:32:48;2.90;;;2.70;;
8213;SDS011;4148;47.974;7.824;2023-08-30T13:35:16;2.80;;;2.50;;
8213;SDS011;4148;47.974;7.824;2023-08-30T13:37:44;3.70;;;3.03;;
8213;SDS011;4148;47.974;7.824;2023-08-30T13:40:12;5.40;;;2.80;;
8213;SDS011;4148;47.974;7.824;2023-08-30T13:42:40;3.60;;;2.70;;
8213;SDS011;4148;47.974;7.824;2023-08-30T13:45:09;2.90;;;2.70;;
8213;SDS011;4148;47.974;7.824;2023-08-30T13:47:38;2.87;;;2.57;;
8213;SDS011;4148;47.974;7.824;2023-08-30T13:50:06;4.90;;;3.10;;
8213;SDS011;4148;47.974;7.824;2023-08-30T13:52:34;4.57;;;2.40;;
8213;SDS011;4148;47.974;7.824;2023-08-30T13:55:02;3.00;;;2.70;;
8213;SDS011;4148;47.974;7.824;2023-08-30T13:57:31;2.63;;;2.40;;
8213;SDS011;4148;47.974;7.824;2023-08-30T13:59:59;2.53;;;2.20;;
8213;SDS011;4148;47.974;7.824;2023-08-30T14:02:31;2.40;;;2.20;;
8213;SDS011;4148;47.974;7.824;2023-08-30T14:04:59;3.40;;;2.30;;
8213;SDS011;4148;47.974;7.824;2023-08-30T14:07:27;4.50;;;3.17;;
8213;SDS011;4148;47.974;7.824;2023-08-30T14:09:55;3.10;;;2.27;;
8213;SDS011;4148;47.974;7.824;2023-08-30T14:12:24;2.40;;;2.20;;
8213;SDS011;4148;47.974;7.824;2023-08-30T14:14:51;2.37;;;2.17;;
8213;SDS011;4148;47.974;7.824;2023-08-30T14:17:19;3.50;;;2.50;;
8213;SDS011;4148;47.974;7.824;2023-08-30T14:19:51;2.60;;;2.40;;
8213;SDS011;4148;47.974;7.824;2023-08-30T14:22:19;2.73;;;2.40;;
8213;SDS011;4148;47.974;7.824;2023-08-30T14:24:47;2.83;;;2.50;;
8213;SDS011;4148;47.974;7.824;2023-08-30T14:27:34;3.43;;;2.50;;
8213;SDS011;4148;47.974;7.824;2023-08-30T14:30:02;3.23;;;2.93;;
8213;SDS011;4148;47.974;7.824;2023-08-30T14:32:31;3.50;;;2.73;;
8213;SDS011;4148;47.974;7.824;2023-08-30T14:35:02;3.20;;;2.90;;
8213;SDS011;4148;47.974;7.824;2023-08-30T14:37:30;3.40;;;2.87;;
8213;SDS011;4148;47.974;7.824;2023-08-30T14:39:58;2.53;;;2.20;;
8213;SDS011;4148;47.974;7.824;2023-08-30T14:42:26;4.47;;;2.57;;
8213;SDS011;4148;47.974;7.824;2023-08-30T14:44:53;3.40;;;2.57;;
8213;SDS011;4148;47.974;7.824;2023-08-30T14:47:21;3.23;;;2.40;;
8213;SDS011;4148;47.974;7.824;2023-08-30T14:49:49;4.30;;;2.43;;
8213;SDS011;4148;47.974;7.824;2023-08-30T14:52:18;3.47;;;2.67;;
8213;SDS011;4148;47.974;7.824;2023-08-30T14:54:46;2.90;;;2.60;;
8213;SDS011;4148;47.974;7.824;2023-08-30T14:57:14;2.73;;;2.20;;
8213;SDS011;4148;47.974;7.824;2023-08-30T14:59:42;2.70;;;2.37;;
8213;SDS011;4148;47.974;7.824;2023-08-30T15:02:10;2.23;;;2.03;;
8213;SDS011;4148;47.974;7.824;2023-08-30T15:04:39;3.73;;;2.20;;
8213;SDS011;4148;47.974;7.824;2023-08-30T15:07:07;6.30;;;2.43;;
8213;SDS011;4148;47.974;7.824;2023-08-30T15:09:36;3.13;;;2.20;;
8213;SDS011;4148;47.974;7.824;2023-08-30T15:12:05;2.63;;;2.20;;
8213;SDS011;4148;47.974;7.824;2023-08-30T15:14:34;3.70;;;2.67;;
8213;SDS011;4148;47.974;7.824;2023-08-30T15:17:02;2.77;;;2.37;;
8213;SDS011;4148;47.974;7.824;2023-08-30T15:19:30;3.87;;;2.10;;
8213;SDS011;4148;47.974;7.824;2023-08-30T15:21:58;2.30;;;1.93;;
8213;SDS011;4148;47.974;7.824;2023-08-30T15:24:25;3.83;;;2.40;;
8213;SDS011;4148;47.974;7.824;2023-08-30T15:26:55;3.37;;;2.20;;